sensor_id;sensor_type;location;lat;lon;timestamp;temperature;humidity
41664;DHT22;27353;50.906;7.248;2024-01-11T00:01:27;-4.00;99.90
41664;DHT22;27353;50.906;7.248;2024-01-11T00:03:52;-4.00;99.90
41664;DHT22;27353;50.906;7.248;2024-01-11T00:06:18;-4.00;99.90
41664;DHT22;27353;50.906;7.248;2024-01-11T00:08:43;-3.90;99.90
41664;DHT22;27353;50.906;7.248;2024-01-11T00:11:10;-3.90;99.90
41664;DHT22;27353;50.906;7.248;2024-01-11T00:13:35;-3.90;99.90
41664;DHT22;27353;50.906;7.248;2024-01-11T00:16:01;-3.90;99.90
41664;DHT22;27353;50.906;7.248;2024-01-11T00:18:26;-4.00;99.90
41664;DHT22;27353;50.906;7.248;2024-01-11T00:20:52;-4.00;99.90
41664;DHT22;27353;50.906;7.248;2024-01-11T00:23:18;-4.00;99.90
41664;DHT22;27353;50.906;7.248;2024-01-11T00:25:43;-4.00;99.90
41664;DHT22;27353;50.906;7.248;2024-01-11T00:28:09;-4.10;99.90
41664;DHT22;27353;50.906;7.248;2024-01-11T00:30:34;-4.10;99.90
41664;DHT22;27353;50.906;7.248;2024-01-11T00:33:00;-4.10;99.90
41664;DHT22;27353;50.906;7.248;2024-01-11T00:35:26;-4.20;99.90
41664;DHT22;27353;50.906;7.248;2024-01-11T00:37:51;-4.10;99.90
41664;DHT22;27353;50.906;7.248;2024-01-11T00:40:17;-4.20;99.90
41664;DHT22;27353;50.906;7.248;2024-01-11T00:42:42;-4.20;99.90
41664;DHT22;27353;50.906;7.248;2024-01-11T00:45:08;-4.20;99.90
41664;DHT22;27353;50.906;7.248;2024-01-11T00:47:34;-4.20;99.90
41664;DHT22;27353;50.906;7.248;2024-01-11T00:49:59;-4.20;99.90
41664;DHT22;27353;50.906;7.248;2024-01-11T00:52:25;-4.20;99.90
41664;DHT22;27353;50.906;7.248;2024-01-11T00:54:50;-4.30;99.90
41664;DHT22;27353;50.906;7.248;2024-01-11T00:57:16;-4.30;99.90
41664;DHT22;27353;50.906;7.248;2024-01-11T00:59:41;-4.30;99.90
41664;DHT22;27353;50.906;7.248;2024-01-11T01:02:08;-4.30;99.90
41664;DHT22;27353;50.906;7.248;2024-01-11T01:04:37;-4.30;99.90
41664;DHT22;27353;50.906;7.248;2024-01-11T01:07:04;-4.30;99.90
41664;DHT22;27353;50.906;7.248;2024-01-11T01:09:31;-4.30;99.90
41664;DHT22;27353;50.906;7.248;2024-01-11T01:11:56;-4.30;99.90
41664;DHT22;27353;50.906;7.248;2024-01-11T01:14:22;-4.30;99.90
41664;DHT22;27353;50.906;7.248;2024-01-11T01:16:47;-4.30;99.90
41664;DHT22;27353;50.906;7.248;2024-01-11T01:19:13;-4.40;99.90
41664;DHT22;27353;50.906;7.248;2024-01-11T01:21:39;-4.40;99.90
41664;DHT22;27353;50.906;7.248;2024-01-11T01:24:04;-4.40;99.90
41664;DHT22;27353;50.906;7.248;2024-01-11T01:26:30;-4.40;99.90
41664;DHT22;27353;50.906;7.248;2024-01-11T01:28:55;-4.40;99.90
41664;DHT22;27353;50.906;7.248;2024-01-11T01:31:21;-4.40;99.90
41664;DHT22;27353;50.906;7.248;2024-01-11T01:33:47;-4.40;99.90
41664;DHT22;27353;50.906;7.248;2024-01-11T01:36:13;-4.40;99.90
41664;DHT22;27353;50.906;7.248;2024-01-11T01:38:38;-4.40;99.90
41664;DHT22;27353;50.906;7.248;2024-01-11T01:41:04;-4.40;99.90
41664;DHT22;27353;50.906;7.248;2024-01-11T01:43:30;-4.40;99.90
41664;DHT22;27353;50.906;7.248;2024-01-11T01:45:55;-4.50;99.90
41664;DHT22;27353;50.906;7.248;2024-01-11T01:48:22;-4.50;99.90
41664;DHT22;27353;50.906;7.248;2024-01-11T01:50:48;-4.50;99.90
41664;DHT22;27353;50.906;7.248;2024-01-11T01:53:20;-4.50;99.90
41664;DHT22;27353;50.906;7.248;2024-01-11T01:55:46;-4.50;99.90
41664;DHT22;27353;50.906;7.248;2024-01-11T01:58:13;-4.50;99.90
41664;DHT22;27353;50.906;7.248;2024-01-11T02:00:40;-4.50;99.90
41664;DHT22;27353;50.906;7.248;2024-01-11T02:03:07;-4.50;99.90
41664;DHT22;27353;50.906;7.248;2024-01-11T02:05:33;-4.50;99.90
41664;DHT22;27353;50.906;7.248;2024-01-11T02:08:01;-4.50;99.90
41664;DHT22;27353;50.906;7.248;2024-01-11T02:10:30;-4.60;99.90
41664;DHT22;27353;50.906;7.248;2024-01-11T02:12:58;-4.60;99.90
41664;DHT22;27353;50.906;7.248;2024-01-11T02:15:24;-4.60;99.90
41664;DHT22;27353;50.906;7.248;2024-01-11T02:17:50;-4.60;99.90
41664;DHT22;27353;50.906;7.248;2024-01-11T02:20:15;-4.60;99.90
41664;DHT22;27353;50.906;7.248;2024-01-11T02:22:47;-4.60;99.90
41664;DHT22;27353;50.906;7.248;2024-01-11T02:25:15;-4.60;99.90
41664;DHT22;27353;50.906;7.248;2024-01-11T02:27:50;-4.70;99.90
41664;DHT22;27353;50.906;7.248;2024-01-11T02:30:17;-4.70;99.90
41664;DHT22;27353;50.906;7.248;2024-01-11T02:32:43;-4.70;99.90
41664;DHT22;27353;50.906;7.248;2024-01-11T02:35:12;-4.80;99.90
41664;DHT22;27353;50.906;7.248;2024-01-11T02:37:38;-4.80;99.90
41664;DHT22;27353;50.906;7.248;2024-01-11T02:40:06;-4.90;99.90
41664;DHT22;27353;50.906;7.248;2024-01-11T02:42:33;-4.80;99.90
41664;DHT22;27353;50.906;7.248;2024-01-11T02:44:59;-4.80;99.90
41664;DHT22;27353;50.906;7.248;2024-01-11T02:47:24;-4.90;99.90
41664;DHT22;27353;50.906;7.248;2024-01-11T02:49:51;-4.80;99.90
41664;DHT22;27353;50.906;7.248;2024-01-11T02:52:16;-4.80;99.90
41664;DHT22;27353;50.906;7.248;2024-01-11T02:54:42;-4.90;99.90
41664;DHT22;27353;50.906;7.248;2024-01-11T02:57:07;-4.90;99.90
41664;DHT22;27353;50.906;7.248;2024-01-11T02:59:33;-4.90;99.90
41664;DHT22;27353;50.906;7.248;2024-01-11T03:01:59;-4.90;99.90
41664;DHT22;27353;50.906;7.248;2024-01-11T03:04:24;-4.90;99.90
41664;DHT22;27353;50.906;7.248;2024-01-11T03:06:50;-5.00;99.90
41664;DHT22;27353;50.906;7.248;2024-01-11T03:09:15;-5.00;99.90
41664;DHT22;27353;50.906;7.248;2024-01-11T03:11:41;-4.90;99.90
41664;DHT22;27353;50.906;7.248;2024-01-11T03:14:06;-4.90;99.90
41664;DHT22;27353;50.906;7.248;2024-01-11T03:16:32;-4.90;99.90
41664;DHT22;27353;50.906;7.248;2024-01-11T03:18:57;-4.90;99.90
41664;DHT22;27353;50.906;7.248;2024-01-11T03:21:23;-4.90;99.90
41664;DHT22;27353;50.906;7.248;2024-01-11T03:23:49;-4.90;99.90
41664;DHT22;27353;50.906;7.248;2024-01-11T03:26:16;-4.90;99.90
41664;DHT22;27353;50.906;7.248;2024-01-11T03:28:42;-5.00;99.90
41664;DHT22;27353;50.906;7.248;2024-01-11T03:31:10;-5.00;99.90
41664;DHT22;27353;50.906;7.248;2024-01-11T03:33:36;-5.00;99.90
41664;DHT22;27353;50.906;7.248;2024-01-11T03:36:09;-5.00;99.90
41664;DHT22;27353;50.906;7.248;2024-01-11T03:38:35;-5.00;99.90
41664;DHT22;27353;50.906;7.248;2024-01-11T03:41:00;-5.00;99.90
41664;DHT22;27353;50.906;7.248;2024-01-11T03:43:26;-5.00;99.90
41664;DHT22;27353;50.906;7.248;2024-01-11T03:45:51;-5.00;99.90
41664;DHT22;27353;50.906;7.248;2024-01-11T03:48:17;-5.00;99.90
41664;DHT22;27353;50.906;7.248;2024-01-11T03:50:42;-4.90;99.90
41664;DHT22;27353;50.906;7.248;2024-01-11T03:53:08;-4.90;99.90
41664;DHT22;27353;50.906;7.248;2024-01-11T03:55:34;-4.90;99.90
41664;DHT22;27353;50.906;7.248;2024-01-11T03:57:59;-4.90;99.90
41664;DHT22;27353;50.906;7.248;2024-01-11T04:00:25;-5.00;99.90
41664;DHT22;27353;50.906;7.248;2024-01-11T04:02:50;-5.00;99.90
41664;DHT22;27353;50.906;7.248;2024-01-11T04:05:16;-5.00;99.90
41664;DHT22;27353;50.906;7.248;2024-01-11T04:07:42;-5.00;99.90
41664;DHT22;27353;50.906;7.248;2024-01-11T04:10:08;-5.00;99.90
41664;DHT22;27353;50.906;7.248;2024-01-11T04:12:37;-5.00;99.90
41664;DHT22;27353;50.906;7.248;2024-01-11T04:15:03;-4.90;99.90
41664;DHT22;27353;50.906;7.248;2024-01-11T04:17:29;-4.90;99.90
41664;DHT22;27353;50.906;7.248;2024-01-11T04:19:55;-4.80;99.90
41664;DHT22;27353;50.906;7.248;2024-01-11T04:22:20;-4.80;99.90
41664;DHT22;27353;50.906;7.248;2024-01-11T04:24:46;-4.80;99.90
41664;DHT22;27353;50.906;7.248;2024-01-11T04:27:11;-4.90;99.90
41664;DHT22;27353;50.906;7.248;2024-01-11T04:29:37;-5.00;99.90
41664;DHT22;27353;50.906;7.248;2024-01-11T04:32:03;-5.10;99.90
41664;DHT22;27353;50.906;7.248;2024-01-11T04:34:28;-5.20;99.90
41664;DHT22;27353;50.906;7.248;2024-01-11T04:36:54;-5.20;99.90
41664;DHT22;27353;50.906;7.248;2024-01-11T04:39:20;-5.20;99.90
41664;DHT22;27353;50.906;7.248;2024-01-11T04:41:45;-5.30;99.90
41664;DHT22;27353;50.906;7.248;2024-01-11T04:44:11;-5.30;99.90
41664;DHT22;27353;50.906;7.248;2024-01-11T04:46:36;-5.30;99.90
41664;DHT22;27353;50.906;7.248;2024-01-11T04:49:02;-5.30;99.90
41664;DHT22;27353;50.906;7.248;2024-01-11T04:51:27;-5.40;99.90
41664;DHT22;27353;50.906;7.248;2024-01-11T04:53:53;-5.40;99.90
41664;DHT22;27353;50.906;7.248;2024-01-11T04:56:19;-5.40;99.90
41664;DHT22;27353;50.906;7.248;2024-01-11T04:58:45;-5.40;99.90
41664;DHT22;27353;50.906;7.248;2024-01-11T05:01:15;-5.30;99.90
41664;DHT22;27353;50.906;7.248;2024-01-11T05:03:45;-5.30;99.90
41664;DHT22;27353;50.906;7.248;2024-01-11T05:06:18;-5.30;99.90
41664;DHT22;27353;50.906;7.248;2024-01-11T05:08:45;-5.30;99.90
41664;DHT22;27353;50.906;7.248;2024-01-11T05:13:43;-5.30;99.90
41664;DHT22;27353;50.906;7.248;2024-01-11T05:16:20;-5.40;99.90
41664;DHT22;27353;50.906;7.248;2024-01-11T05:18:46;-5.40;99.90
41664;DHT22;27353;50.906;7.248;2024-01-11T05:21:12;-5.50;99.90
41664;DHT22;27353;50.906;7.248;2024-01-11T05:23:37;-5.50;99.90
41664;DHT22;27353;50.906;7.248;2024-01-11T05:26:03;-5.60;99.90
41664;DHT22;27353;50.906;7.248;2024-01-11T05:28:29;-5.60;99.90
41664;DHT22;27353;50.906;7.248;2024-01-11T05:30:54;-5.60;99.90
41664;DHT22;27353;50.906;7.248;2024-01-11T05:33:20;-5.60;99.90
41664;DHT22;27353;50.906;7.248;2024-01-11T05:35:45;-5.60;99.90
41664;DHT22;27353;50.906;7.248;2024-01-11T05:38:11;-5.60;99.90
41664;DHT22;27353;50.906;7.248;2024-01-11T05:40:37;-5.70;99.90
41664;DHT22;27353;50.906;7.248;2024-01-11T05:43:02;-5.60;99.90
41664;DHT22;27353;50.906;7.248;2024-01-11T05:45:28;-5.70;99.90
41664;DHT22;27353;50.906;7.248;2024-01-11T05:47:54;-5.70;99.90
41664;DHT22;27353;50.906;7.248;2024-01-11T05:50:19;-5.60;99.90
41664;DHT22;27353;50.906;7.248;2024-01-11T05:52:45;-5.60;99.90
41664;DHT22;27353;50.906;7.248;2024-01-11T05:55:10;-5.60;99.90
41664;DHT22;27353;50.906;7.248;2024-01-11T05:57:36;-5.60;99.90
41664;DHT22;27353;50.906;7.248;2024-01-11T06:00:02;-5.60;99.90
41664;DHT22;27353;50.906;7.248;2024-01-11T06:02:27;-5.70;99.90
41664;DHT22;27353;50.906;7.248;2024-01-11T06:04:53;-5.70;99.90
41664;DHT22;27353;50.906;7.248;2024-01-11T06:07:19;-5.60;99.90
41664;DHT22;27353;50.906;7.248;2024-01-11T06:09:44;-5.60;99.90
41664;DHT22;27353;50.906;7.248;2024-01-11T06:12:10;-5.60;99.90
41664;DHT22;27353;50.906;7.248;2024-01-11T06:14:35;-5.60;99.90
41664;DHT22;27353;50.906;7.248;2024-01-11T06:17:01;-5.60;99.90
41664;DHT22;27353;50.906;7.248;2024-01-11T06:19:26;-5.60;99.90
41664;DHT22;27353;50.906;7.248;2024-01-11T06:21:52;-5.70;99.90
41664;DHT22;27353;50.906;7.248;2024-01-11T06:24:18;-5.70;99.90
41664;DHT22;27353;50.906;7.248;2024-01-11T06:26:43;-5.70;99.90
41664;DHT22;27353;50.906;7.248;2024-01-11T06:29:09;-5.70;99.90
41664;DHT22;27353;50.906;7.248;2024-01-11T06:31:34;-5.80;99.90
41664;DHT22;27353;50.906;7.248;2024-01-11T06:34:00;-5.90;99.90
41664;DHT22;27353;50.906;7.248;2024-01-11T06:36:26;-5.90;99.90
41664;DHT22;27353;50.906;7.248;2024-01-11T06:38:51;-5.90;99.90
41664;DHT22;27353;50.906;7.248;2024-01-11T06:41:17;-5.90;99.90
41664;DHT22;27353;50.906;7.248;2024-01-11T06:43:42;-5.90;99.90
41664;DHT22;27353;50.906;7.248;2024-01-11T06:46:08;-6.00;99.90
41664;DHT22;27353;50.906;7.248;2024-01-11T06:48:36;-6.00;99.90
41664;DHT22;27353;50.906;7.248;2024-01-11T06:51:01;-6.00;99.90
41664;DHT22;27353;50.906;7.248;2024-01-11T06:53:27;-6.10;99.90
41664;DHT22;27353;50.906;7.248;2024-01-11T06:55:53;-6.10;99.90
41664;DHT22;27353;50.906;7.248;2024-01-11T06:58:20;-6.10;99.90
41664;DHT22;27353;50.906;7.248;2024-01-11T07:00:48;-6.20;99.90
41664;DHT22;27353;50.906;7.248;2024-01-11T07:03:15;-6.10;99.90
41664;DHT22;27353;50.906;7.248;2024-01-11T07:05:40;-6.20;99.90
41664;DHT22;27353;50.906;7.248;2024-01-11T07:08:06;-6.20;99.90
41664;DHT22;27353;50.906;7.248;2024-01-11T07:10:31;-6.10;99.90
41664;DHT22;27353;50.906;7.248;2024-01-11T07:12:57;-6.20;99.90
41664;DHT22;27353;50.906;7.248;2024-01-11T07:15:23;-6.10;99.90
41664;DHT22;27353;50.906;7.248;2024-01-11T07:17:49;-6.10;99.90
41664;DHT22;27353;50.906;7.248;2024-01-11T07:20:14;-6.20;99.90
41664;DHT22;27353;50.906;7.248;2024-01-11T07:22:42;-6.20;99.90
41664;DHT22;27353;50.906;7.248;2024-01-11T07:25:07;-6.30;99.90
41664;DHT22;27353;50.906;7.248;2024-01-11T07:27:33;-6.20;99.90
41664;DHT22;27353;50.906;7.248;2024-01-11T07:29:59;-6.20;99.90
41664;DHT22;27353;50.906;7.248;2024-01-11T07:32:24;-6.30;99.90
41664;DHT22;27353;50.906;7.248;2024-01-11T07:34:50;-6.30;99.90
41664;DHT22;27353;50.906;7.248;2024-01-11T07:37:16;-6.20;99.90
41664;DHT22;27353;50.906;7.248;2024-01-11T07:39:41;-6.20;99.90
41664;DHT22;27353;50.906;7.248;2024-01-11T07:42:07;-6.20;99.90
41664;DHT22;27353;50.906;7.248;2024-01-11T07:44:33;-6.20;99.90
41664;DHT22;27353;50.906;7.248;2024-01-11T07:46:58;-6.10;99.90
41664;DHT22;27353;50.906;7.248;2024-01-11T07:49:24;-6.10;99.90
41664;DHT22;27353;50.906;7.248;2024-01-11T07:51:49;-6.00;99.90
41664;DHT22;27353;50.906;7.248;2024-01-11T07:54:15;-6.00;99.90
41664;DHT22;27353;50.906;7.248;2024-01-11T07:56:41;-5.90;99.90
41664;DHT22;27353;50.906;7.248;2024-01-11T07:59:07;-5.80;99.90
41664;DHT22;27353;50.906;7.248;2024-01-11T08:01:32;-5.70;99.90
41664;DHT22;27353;50.906;7.248;2024-01-11T08:04:00;-5.70;99.90
41664;DHT22;27353;50.906;7.248;2024-01-11T08:06:28;-5.70;99.90
41664;DHT22;27353;50.906;7.248;2024-01-11T08:08:53;-5.70;99.90
41664;DHT22;27353;50.906;7.248;2024-01-11T08:11:19;-5.70;99.90
41664;DHT22;27353;50.906;7.248;2024-01-11T08:13:45;-5.70;99.90
41664;DHT22;27353;50.906;7.248;2024-01-11T08:16:16;-5.70;99.90
41664;DHT22;27353;50.906;7.248;2024-01-11T08:18:42;-5.70;99.90
41664;DHT22;27353;50.906;7.248;2024-01-11T08:21:09;-5.60;99.90
41664;DHT22;27353;50.906;7.248;2024-01-11T08:23:42;-5.00;99.90
41664;DHT22;27353;50.906;7.248;2024-01-11T08:26:14;-4.20;99.90
41664;DHT22;27353;50.906;7.248;2024-01-11T08:28:40;-3.30;99.90
41664;DHT22;27353;50.906;7.248;2024-01-11T08:31:07;-2.60;99.90
41664;DHT22;27353;50.906;7.248;2024-01-11T08:33:33;-2.10;99.90
41664;DHT22;27353;50.906;7.248;2024-01-11T08:35:58;-2.20;99.90
41664;DHT22;27353;50.906;7.248;2024-01-11T08:38:24;-1.70;99.90
41664;DHT22;27353;50.906;7.248;2024-01-11T08:40:50;-0.70;99.90
41664;DHT22;27353;50.906;7.248;2024-01-11T08:43:16;-0.60;99.90
41664;DHT22;27353;50.906;7.248;2024-01-11T08:45:41;-0.60;99.90
41664;DHT22;27353;50.906;7.248;2024-01-11T08:48:08;0.60;99.90
41664;DHT22;27353;50.906;7.248;2024-01-11T08:50:35;1.00;99.90
41664;DHT22;27353;50.906;7.248;2024-01-11T08:53:00;2.30;99.90
41664;DHT22;27353;50.906;7.248;2024-01-11T08:55:26;2.10;99.90
41664;DHT22;27353;50.906;7.248;2024-01-11T08:57:52;2.30;99.90
41664;DHT22;27353;50.906;7.248;2024-01-11T09:00:17;2.40;99.90
41664;DHT22;27353;50.906;7.248;2024-01-11T09:02:44;2.50;99.90
41664;DHT22;27353;50.906;7.248;2024-01-11T09:05:11;1.30;99.90
41664;DHT22;27353;50.906;7.248;2024-01-11T09:07:36;0.20;99.90
41664;DHT22;27353;50.906;7.248;2024-01-11T09:10:03;-1.00;99.90
41664;DHT22;27353;50.906;7.248;2024-01-11T09:12:28;-1.50;99.90
41664;DHT22;27353;50.906;7.248;2024-01-11T09:14:54;-1.70;99.90
41664;DHT22;27353;50.906;7.248;2024-01-11T09:17:20;-1.70;99.90
41664;DHT22;27353;50.906;7.248;2024-01-11T09:19:46;-2.20;99.90
41664;DHT22;27353;50.906;7.248;2024-01-11T09:22:12;-2.30;99.90
41664;DHT22;27353;50.906;7.248;2024-01-11T09:24:38;-2.30;99.90
41664;DHT22;27353;50.906;7.248;2024-01-11T09:27:03;-2.80;99.90
41664;DHT22;27353;50.906;7.248;2024-01-11T09:29:29;-2.70;99.90
41664;DHT22;27353;50.906;7.248;2024-01-11T09:31:55;-2.80;99.90
41664;DHT22;27353;50.906;7.248;2024-01-11T09:34:21;-3.00;99.90
41664;DHT22;27353;50.906;7.248;2024-01-11T09:36:46;-2.80;99.90
41664;DHT22;27353;50.906;7.248;2024-01-11T09:39:12;-2.60;99.90
41664;DHT22;27353;50.906;7.248;2024-01-11T09:41:41;-2.40;99.90
41664;DHT22;27353;50.906;7.248;2024-01-11T09:44:08;-2.00;99.90
41664;DHT22;27353;50.906;7.248;2024-01-11T09:46:35;-1.70;99.90
41664;DHT22;27353;50.906;7.248;2024-01-11T09:49:02;-1.10;99.90
41664;DHT22;27353;50.906;7.248;2024-01-11T09:51:29;-0.20;99.90
41664;DHT22;27353;50.906;7.248;2024-01-11T09:53:55;0.80;99.90
41664;DHT22;27353;50.906;7.248;2024-01-11T09:56:24;3.00;99.90
41664;DHT22;27353;50.906;7.248;2024-01-11T09:58:52;4.60;99.90
41664;DHT22;27353;50.906;7.248;2024-01-11T10:01:18;5.20;99.90
41664;DHT22;27353;50.906;7.248;2024-01-11T10:03:44;6.40;99.90
41664;DHT22;27353;50.906;7.248;2024-01-11T10:06:14;6.40;99.90
41664;DHT22;27353;50.906;7.248;2024-01-11T10:08:41;7.40;99.90
41664;DHT22;27353;50.906;7.248;2024-01-11T10:11:06;7.40;99.90
41664;DHT22;27353;50.906;7.248;2024-01-11T10:13:33;6.30;99.90
41664;DHT22;27353;50.906;7.248;2024-01-11T10:16:11;7.10;99.90
41664;DHT22;27353;50.906;7.248;2024-01-11T10:18:41;7.20;99.90
41664;DHT22;27353;50.906;7.248;2024-01-11T10:21:07;6.80;99.90
41664;DHT22;27353;50.906;7.248;2024-01-11T10:23:38;7.60;99.50
41664;DHT22;27353;50.906;7.248;2024-01-11T10:26:06;8.00;98.40
41664;DHT22;27353;50.906;7.248;2024-01-11T10:28:35;8.50;97.90
41664;DHT22;27353;50.906;7.248;2024-01-11T10:31:04;8.30;97.20
41664;DHT22;27353;50.906;7.248;2024-01-11T10:33:33;8.30;97.60
41664;DHT22;27353;50.906;7.248;2024-01-11T10:36:00;9.20;96.60
41664;DHT22;27353;50.906;7.248;2024-01-11T10:38:26;9.90;95.80
41664;DHT22;27353;50.906;7.248;2024-01-11T10:40:54;9.60;95.00
41664;DHT22;27353;50.906;7.248;2024-01-11T10:43:22;9.00;95.60
41664;DHT22;27353;50.906;7.248;2024-01-11T10:45:51;7.70;97.50
41664;DHT22;27353;50.906;7.248;2024-01-11T10:48:21;8.90;96.30
41664;DHT22;27353;50.906;7.248;2024-01-11T10:50:50;9.30;95.10
41664;DHT22;27353;50.906;7.248;2024-01-11T10:55:59;10.10;95.00
41664;DHT22;27353;50.906;7.248;2024-01-11T10:58:29;9.80;94.20
41664;DHT22;27353;50.906;7.248;2024-01-11T11:00:55;9.50;95.00
41664;DHT22;27353;50.906;7.248;2024-01-11T11:03:25;9.10;94.60
41664;DHT22;27353;50.906;7.248;2024-01-11T11:05:53;8.60;96.10
41664;DHT22;27353;50.906;7.248;2024-01-11T11:08:22;8.40;95.70
41664;DHT22;27353;50.906;7.248;2024-01-11T11:10:48;8.20;96.50
41664;DHT22;27353;50.906;7.248;2024-01-11T11:13:17;8.50;96.00
41664;DHT22;27353;50.906;7.248;2024-01-11T11:15:45;7.90;96.60
41664;DHT22;27353;50.906;7.248;2024-01-11T11:18:13;8.70;96.80
41664;DHT22;27353;50.906;7.248;2024-01-11T11:20:40;9.10;96.00
41664;DHT22;27353;50.906;7.248;2024-01-11T11:23:08;9.30;95.30
41664;DHT22;27353;50.906;7.248;2024-01-11T11:25:35;8.90;95.30
41664;DHT22;27353;50.906;7.248;2024-01-11T11:28:01;8.80;96.60
41664;DHT22;27353;50.906;7.248;2024-01-11T11:30:30;10.00;95.30
41664;DHT22;27353;50.906;7.248;2024-01-11T11:32:55;9.30;95.30
41664;DHT22;27353;50.906;7.248;2024-01-11T11:35:24;8.90;95.70
41664;DHT22;27353;50.906;7.248;2024-01-11T11:37:55;8.40;95.70
41664;DHT22;27353;50.906;7.248;2024-01-11T11:40:32;8.90;95.90
41664;DHT22;27353;50.906;7.248;2024-01-11T11:43:00;8.30;97.00
41664;DHT22;27353;50.906;7.248;2024-01-11T11:45:26;8.90;96.10
41664;DHT22;27353;50.906;7.248;2024-01-11T11:47:52;8.60;96.70
41664;DHT22;27353;50.906;7.248;2024-01-11T11:50:21;8.90;95.40
41664;DHT22;27353;50.906;7.248;2024-01-11T11:52:54;8.90;94.80
41664;DHT22;27353;50.906;7.248;2024-01-11T11:55:22;8.30;95.00
41664;DHT22;27353;50.906;7.248;2024-01-11T11:57:49;7.70;96.50
41664;DHT22;27353;50.906;7.248;2024-01-11T12:00:16;8.30;96.30
41664;DHT22;27353;50.906;7.248;2024-01-11T12:02:41;7.90;96.10
41664;DHT22;27353;50.906;7.248;2024-01-11T12:05:07;7.30;97.30
41664;DHT22;27353;50.906;7.248;2024-01-11T12:07:33;7.50;96.90
41664;DHT22;27353;50.906;7.248;2024-01-11T12:09:59;7.60;97.40
41664;DHT22;27353;50.906;7.248;2024-01-11T12:12:25;8.10;96.90
41664;DHT22;27353;50.906;7.248;2024-01-11T12:14:53;7.60;96.90
41664;DHT22;27353;50.906;7.248;2024-01-11T12:17:19;7.90;97.00
41664;DHT22;27353;50.906;7.248;2024-01-11T12:19:44;8.50;96.00
41664;DHT22;27353;50.906;7.248;2024-01-11T12:22:10;8.00;96.10
41664;DHT22;27353;50.906;7.248;2024-01-11T12:24:36;9.00;96.60
41664;DHT22;27353;50.906;7.248;2024-01-11T12:27:02;8.70;95.40
41664;DHT22;27353;50.906;7.248;2024-01-11T12:29:29;9.30;95.50
41664;DHT22;27353;50.906;7.248;2024-01-11T12:31:59;10.40;94.00
41664;DHT22;27353;50.906;7.248;2024-01-11T12:34:25;10.70;93.10
41664;DHT22;27353;50.906;7.248;2024-01-11T12:36:52;8.40;94.60
41664;DHT22;27353;50.906;7.248;2024-01-11T12:39:19;8.10;96.40
41664;DHT22;27353;50.906;7.248;2024-01-11T12:41:50;6.80;97.60
41664;DHT22;27353;50.906;7.248;2024-01-11T12:44:20;5.80;98.90
41664;DHT22;27353;50.906;7.248;2024-01-11T12:46:48;5.70;99.90
41664;DHT22;27353;50.906;7.248;2024-01-11T12:49:14;6.30;98.70
41664;DHT22;27353;50.906;7.248;2024-01-11T12:51:41;5.60;99.10
41664;DHT22;27353;50.906;7.248;2024-01-11T12:54:12;4.20;99.90
41664;DHT22;27353;50.906;7.248;2024-01-11T12:56:42;3.50;99.90
41664;DHT22;27353;50.906;7.248;2024-01-11T12:59:08;2.90;99.90
41664;DHT22;27353;50.906;7.248;2024-01-11T13:01:36;2.40;99.90
41664;DHT22;27353;50.906;7.248;2024-01-11T13:04:01;2.10;99.90
41664;DHT22;27353;50.906;7.248;2024-01-11T13:06:31;1.90;99.90
41664;DHT22;27353;50.906;7.248;2024-01-11T13:08:57;1.50;99.90
41664;DHT22;27353;50.906;7.248;2024-01-11T13:11:23;1.50;99.90
41664;DHT22;27353;50.906;7.248;2024-01-11T13:13:50;1.40;99.90
41664;DHT22;27353;50.906;7.248;2024-01-11T13:16:17;1.40;99.90
41664;DHT22;27353;50.906;7.248;2024-01-11T13:18:44;1.40;99.90
41664;DHT22;27353;50.906;7.248;2024-01-11T13:21:10;1.30;99.90
41664;DHT22;27353;50.906;7.248;2024-01-11T13:23:37;1.10;99.90
41664;DHT22;27353;50.906;7.248;2024-01-11T13:26:03;1.10;99.90
41664;DHT22;27353;50.906;7.248;2024-01-11T13:28:30;1.10;99.90
41664;DHT22;27353;50.906;7.248;2024-01-11T13:30:56;1.20;99.90
41664;DHT22;27353;50.906;7.248;2024-01-11T13:33:22;1.20;99.90
41664;DHT22;27353;50.906;7.248;2024-01-11T13:35:49;1.10;99.90
41664;DHT22;27353;50.906;7.248;2024-01-11T13:38:15;1.10;99.90
41664;DHT22;27353;50.906;7.248;2024-01-11T13:40:41;1.20;99.90
41664;DHT22;27353;50.906;7.248;2024-01-11T13:43:08;1.10;99.90
41664;DHT22;27353;50.906;7.248;2024-01-11T13:45:35;1.20;99.90
41664;DHT22;27353;50.906;7.248;2024-01-11T13:48:04;1.10;99.90
41664;DHT22;27353;50.906;7.248;2024-01-11T13:50:30;1.10;99.90
41664;DHT22;27353;50.906;7.248;2024-01-11T13:52:56;1.00;99.90
41664;DHT22;27353;50.906;7.248;2024-01-11T13:55:22;1.10;99.90
41664;DHT22;27353;50.906;7.248;2024-01-11T13:57:49;1.00;99.90
41664;DHT22;27353;50.906;7.248;2024-01-11T14:00:15;1.00;99.90
41664;DHT22;27353;50.906;7.248;2024-01-11T14:02:43;1.00;99.90
41664;DHT22;27353;50.906;7.248;2024-01-11T14:05:08;1.00;99.90
41664;DHT22;27353;50.906;7.248;2024-01-11T14:07:39;1.10;99.90
41664;DHT22;27353;50.906;7.248;2024-01-11T14:10:06;1.00;99.90
41664;DHT22;27353;50.906;7.248;2024-01-11T14:12:34;0.90;99.90
41664;DHT22;27353;50.906;7.248;2024-01-11T14:15:05;0.90;99.90
41664;DHT22;27353;50.906;7.248;2024-01-11T14:17:34;0.80;99.90
41664;DHT22;27353;50.906;7.248;2024-01-11T14:20:00;0.80;99.90
41664;DHT22;27353;50.906;7.248;2024-01-11T14:22:26;0.80;99.90
41664;DHT22;27353;50.906;7.248;2024-01-11T14:24:52;0.80;99.90
41664;DHT22;27353;50.906;7.248;2024-01-11T14:27:19;0.80;99.90
41664;DHT22;27353;50.906;7.248;2024-01-11T14:29:44;0.80;99.90
41664;DHT22;27353;50.906;7.248;2024-01-11T14:32:10;0.70;99.90
41664;DHT22;27353;50.906;7.248;2024-01-11T14:34:36;0.80;99.90
41664;DHT22;27353;50.906;7.248;2024-01-11T14:37:02;0.70;99.90
41664;DHT22;27353;50.906;7.248;2024-01-11T14:39:28;0.70;99.90
41664;DHT22;27353;50.906;7.248;2024-01-11T14:41:53;0.80;99.90
41664;DHT22;27353;50.906;7.248;2024-01-11T14:44:19;0.70;99.90
41664;DHT22;27353;50.906;7.248;2024-01-11T14:46:44;0.70;99.90
41664;DHT22;27353;50.906;7.248;2024-01-11T14:49:10;0.60;99.90
41664;DHT22;27353;50.906;7.248;2024-01-11T14:51:35;0.60;99.90
41664;DHT22;27353;50.906;7.248;2024-01-11T14:54:03;0.60;99.90
41664;DHT22;27353;50.906;7.248;2024-01-11T14:56:30;0.60;99.90
41664;DHT22;27353;50.906;7.248;2024-01-11T14:58:55;0.60;99.90
41664;DHT22;27353;50.906;7.248;2024-01-11T15:01:21;0.60;99.90
41664;DHT22;27353;50.906;7.248;2024-01-11T15:03:47;0.50;99.90
41664;DHT22;27353;50.906;7.248;2024-01-11T15:06:13;0.50;99.90
41664;DHT22;27353;50.906;7.248;2024-01-11T15:08:38;0.40;99.90
41664;DHT22;27353;50.906;7.248;2024-01-11T15:11:05;0.40;99.90
41664;DHT22;27353;50.906;7.248;2024-01-11T15:13:31;0.30;99.90
41664;DHT22;27353;50.906;7.248;2024-01-11T15:15:57;0.30;99.90
41664;DHT22;27353;50.906;7.248;2024-01-11T15:18:22;0.30;99.90
41664;DHT22;27353;50.906;7.248;2024-01-11T15:20:48;0.20;99.90
41664;DHT22;27353;50.906;7.248;2024-01-11T15:23:14;0.20;99.90
41664;DHT22;27353;50.906;7.248;2024-01-11T15:25:39;0.10;99.90
41664;DHT22;27353;50.906;7.248;2024-01-11T15:28:05;0.10;99.90
41664;DHT22;27353;50.906;7.248;2024-01-11T15:30:30;0.10;99.90
41664;DHT22;27353;50.906;7.248;2024-01-11T15:32:56;0.10;99.90
41664;DHT22;27353;50.906;7.248;2024-01-11T15:35:21;0.10;99.90
41664;DHT22;27353;50.906;7.248;2024-01-11T15:37:47;0.00;99.90